Decoded Metar for UKOO (ODESSA in UKRAINE) (IATA:ODS) | Meteo·Mobile Aviation Weather
aviador You're here:

UKOO Decoded Metar

ODESSA in UKRAINE
Report Time2019-05-21 08:30:00
UTC Time2019-05-21 09:02:18
Flight Rules vfr VFR
Wind160° at 12 kt
W.Decomp.*RWY 16: 12.0 kt HW 0.8 kt LCW
Visibility9999 m
Phenomena:N/A
Clouds:N/A
Expected CloudBase > 2,400 ft AGL from Temp-Dew spread
CeilingNone
Temp22°C (ISA +7)
Dew Point16°C (69% RH)
AAT19.7°C
QNH1012 hPa
Density Alt1,234 ft
Elevation115 ft
Report Wrong Elevation
Raw Report
METAR UKOO 210830Z 16006MPS CAVOK 22/16 Q1012 R16/090060 NOSIG=

Extra information for UKOO:More info

Metar Taf Metar & Taf Last 4 Metars F.Rules Stats Wind Profile Meteogram Temp Stats Airport Information Weather charts Add Link Nearby VenuesMetar ALERT Operation Metar Decoded Social comments